sensor_id;sensor_type;location;lat;lon;timestamp;P1;durP1;ratioP1;P2;durP2;ratioP2
26536;SDS011;14204;51.262;5.488;2023-11-19T00:00:35;20.58;;;12.50;;
26536;SDS011;14204;51.262;5.488;2023-11-19T00:03:01;17.00;;;11.35;;
26536;SDS011;14204;51.262;5.488;2023-11-19T00:05:27;16.15;;;11.50;;
26536;SDS011;14204;51.262;5.488;2023-11-19T00:07:52;22.63;;;11.40;;
26536;SDS011;14204;51.262;5.488;2023-11-19T00:10:18;14.32;;;10.10;;
26536;SDS011;14204;51.262;5.488;2023-11-19T00:12:45;14.25;;;9.55;;
26536;SDS011;14204;51.262;5.488;2023-11-19T00:15:12;13.48;;;11.02;;
26536;SDS011;14204;51.262;5.488;2023-11-19T00:17:38;16.90;;;11.25;;
26536;SDS011;14204;51.262;5.488;2023-11-19T00:20:11;19.48;;;11.93;;
26536;SDS011;14204;51.262;5.488;2023-11-19T00:22:37;18.17;;;12.35;;
26536;SDS011;14204;51.262;5.488;2023-11-19T00:25:03;13.40;;;10.25;;
26536;SDS011;14204;51.262;5.488;2023-11-19T00:27:30;12.93;;;10.00;;
26536;SDS011;14204;51.262;5.488;2023-11-19T00:29:56;16.15;;;10.52;;
26536;SDS011;14204;51.262;5.488;2023-11-19T00:32:22;15.43;;;10.50;;
26536;SDS011;14204;51.262;5.488;2023-11-19T00:34:48;15.10;;;9.75;;
26536;SDS011;14204;51.262;5.488;2023-11-19T00:37:14;15.23;;;9.57;;
26536;SDS011;14204;51.262;5.488;2023-11-19T00:39:40;16.73;;;10.35;;
26536;SDS011;14204;51.262;5.488;2023-11-19T00:42:07;16.98;;;9.73;;
26536;SDS011;14204;51.262;5.488;2023-11-19T00:44:33;18.13;;;10.82;;
26536;SDS011;14204;51.262;5.488;2023-11-19T00:46:58;17.63;;;8.70;;
26536;SDS011;14204;51.262;5.488;2023-11-19T00:49:25;20.55;;;10.93;;
26536;SDS011;14204;51.262;5.488;2023-11-19T00:51:50;20.80;;;9.73;;
26536;SDS011;14204;51.262;5.488;2023-11-19T00:54:16;19.05;;;9.10;;
26536;SDS011;14204;51.262;5.488;2023-11-19T00:56:42;16.13;;;7.50;;
26536;SDS011;14204;51.262;5.488;2023-11-19T00:59:08;17.02;;;8.68;;
26536;SDS011;14204;51.262;5.488;2023-11-19T01:01:33;18.50;;;8.15;;
26536;SDS011;14204;51.262;5.488;2023-11-19T01:03:59;22.55;;;9.35;;
26536;SDS011;14204;51.262;5.488;2023-11-19T01:06:28;19.17;;;7.68;;
26536;SDS011;14204;51.262;5.488;2023-11-19T01:08:55;19.23;;;6.35;;
26536;SDS011;14204;51.262;5.488;2023-11-19T01:11:22;17.25;;;6.70;;
26536;SDS011;14204;51.262;5.488;2023-11-19T01:13:48;18.40;;;6.32;;
26536;SDS011;14204;51.262;5.488;2023-11-19T01:16:14;27.73;;;7.80;;
26536;SDS011;14204;51.262;5.488;2023-11-19T01:18:41;29.65;;;7.82;;
26536;SDS011;14204;51.262;5.488;2023-11-19T01:21:06;23.90;;;7.43;;
26536;SDS011;14204;51.262;5.488;2023-11-19T01:23:32;23.73;;;7.32;;
26536;SDS011;14204;51.262;5.488;2023-11-19T01:25:59;18.05;;;6.70;;
26536;SDS011;14204;51.262;5.488;2023-11-19T01:28:24;16.35;;;6.45;;
26536;SDS011;14204;51.262;5.488;2023-11-19T01:30:50;28.92;;;6.63;;
26536;SDS011;14204;51.262;5.488;2023-11-19T01:33:16;27.08;;;6.97;;
26536;SDS011;14204;51.262;5.488;2023-11-19T01:35:42;24.50;;;7.03;;
26536;SDS011;14204;51.262;5.488;2023-11-19T01:38:08;23.63;;;6.47;;
26536;SDS011;14204;51.262;5.488;2023-11-19T01:40:33;31.33;;;7.72;;
26536;SDS011;14204;51.262;5.488;2023-11-19T01:43:01;23.45;;;6.22;;
26536;SDS011;14204;51.262;5.488;2023-11-19T01:45:28;25.48;;;6.57;;
26536;SDS011;14204;51.262;5.488;2023-11-19T01:47:56;23.67;;;6.22;;
26536;SDS011;14204;51.262;5.488;2023-11-19T01:50:23;29.67;;;6.82;;
26536;SDS011;14204;51.262;5.488;2023-11-19T01:52:52;26.75;;;6.25;;
26536;SDS011;14204;51.262;5.488;2023-11-19T01:55:19;27.80;;;6.40;;
26536;SDS011;14204;51.262;5.488;2023-11-19T01:57:46;22.55;;;5.95;;
26536;SDS011;14204;51.262;5.488;2023-11-19T02:00:13;25.80;;;6.68;;
26536;SDS011;14204;51.262;5.488;2023-11-19T02:02:40;28.80;;;6.68;;
26536;SDS011;14204;51.262;5.488;2023-11-19T02:05:06;31.50;;;6.80;;
26536;SDS011;14204;51.262;5.488;2023-11-19T02:07:32;27.20;;;6.20;;
26536;SDS011;14204;51.262;5.488;2023-11-19T02:09:57;24.65;;;5.55;;
26536;SDS011;14204;51.262;5.488;2023-11-19T02:12:25;26.77;;;5.53;;
26536;SDS011;14204;51.262;5.488;2023-11-19T02:14:53;25.60;;;6.03;;
26536;SDS011;14204;51.262;5.488;2023-11-19T02:17:26;27.55;;;5.93;;
26536;SDS011;14204;51.262;5.488;2023-11-19T02:19:52;31.25;;;5.97;;
26536;SDS011;14204;51.262;5.488;2023-11-19T02:22:18;26.95;;;5.72;;
26536;SDS011;14204;51.262;5.488;2023-11-19T02:24:45;23.90;;;5.00;;
26536;SDS011;14204;51.262;5.488;2023-11-19T02:27:16;23.58;;;5.25;;
26536;SDS011;14204;51.262;5.488;2023-11-19T02:29:51;26.33;;;5.82;;
26536;SDS011;14204;51.262;5.488;2023-11-19T02:32:17;32.50;;;6.10;;
26536;SDS011;14204;51.262;5.488;2023-11-19T02:34:42;30.23;;;6.97;;
26536;SDS011;14204;51.262;5.488;2023-11-19T02:37:08;30.00;;;6.00;;
26536;SDS011;14204;51.262;5.488;2023-11-19T02:39:35;27.58;;;7.03;;
26536;SDS011;14204;51.262;5.488;2023-11-19T02:42:02;30.35;;;6.50;;
26536;SDS011;14204;51.262;5.488;2023-11-19T02:44:27;21.48;;;5.38;;
26536;SDS011;14204;51.262;5.488;2023-11-19T02:46:55;21.80;;;5.15;;
26536;SDS011;14204;51.262;5.488;2023-11-19T02:49:24;24.63;;;6.40;;
26536;SDS011;14204;51.262;5.488;2023-11-19T02:51:50;31.75;;;6.30;;
26536;SDS011;14204;51.262;5.488;2023-11-19T02:54:15;33.45;;;5.78;;
26536;SDS011;14204;51.262;5.488;2023-11-19T02:56:44;35.22;;;6.55;;
26536;SDS011;14204;51.262;5.488;2023-11-19T02:59:13;30.17;;;5.72;;
26536;SDS011;14204;51.262;5.488;2023-11-19T03:01:52;42.22;;;6.53;;
26536;SDS011;14204;51.262;5.488;2023-11-19T03:04:18;27.60;;;6.30;;
26536;SDS011;14204;51.262;5.488;2023-11-19T03:06:45;32.95;;;7.00;;
26536;SDS011;14204;51.262;5.488;2023-11-19T03:09:11;35.47;;;7.03;;
26536;SDS011;14204;51.262;5.488;2023-11-19T03:11:37;35.80;;;6.30;;
26536;SDS011;14204;51.262;5.488;2023-11-19T03:14:03;30.02;;;6.50;;
26536;SDS011;14204;51.262;5.488;2023-11-19T03:16:29;42.88;;;5.85;;
26536;SDS011;14204;51.262;5.488;2023-11-19T03:18:55;30.63;;;5.88;;
26536;SDS011;14204;51.262;5.488;2023-11-19T03:21:30;42.60;;;7.28;;
26536;SDS011;14204;51.262;5.488;2023-11-19T03:23:57;34.92;;;6.38;;
26536;SDS011;14204;51.262;5.488;2023-11-19T03:26:25;39.88;;;6.93;;
26536;SDS011;14204;51.262;5.488;2023-11-19T03:28:52;39.95;;;7.07;;
26536;SDS011;14204;51.262;5.488;2023-11-19T03:31:18;33.75;;;7.13;;
26536;SDS011;14204;51.262;5.488;2023-11-19T03:33:44;33.92;;;6.35;;
26536;SDS011;14204;51.262;5.488;2023-11-19T03:36:10;46.63;;;6.82;;
26536;SDS011;14204;51.262;5.488;2023-11-19T03:38:36;33.83;;;6.05;;
26536;SDS011;14204;51.262;5.488;2023-11-19T03:41:09;40.97;;;7.03;;
26536;SDS011;14204;51.262;5.488;2023-11-19T03:43:36;43.83;;;6.50;;
26536;SDS011;14204;51.262;5.488;2023-11-19T03:46:02;40.00;;;7.10;;
26536;SDS011;14204;51.262;5.488;2023-11-19T03:48:27;40.53;;;6.25;;
26536;SDS011;14204;51.262;5.488;2023-11-19T03:50:53;44.30;;;6.55;;
26536;SDS011;14204;51.262;5.488;2023-11-19T03:53:19;33.05;;;6.57;;
26536;SDS011;14204;51.262;5.488;2023-11-19T03:55:45;34.00;;;6.05;;
26536;SDS011;14204;51.262;5.488;2023-11-19T03:58:10;29.50;;;5.45;;
26536;SDS011;14204;51.262;5.488;2023-11-19T04:00:37;34.45;;;5.82;;
26536;SDS011;14204;51.262;5.488;2023-11-19T04:03:02;36.00;;;6.60;;
26536;SDS011;14204;51.262;5.488;2023-11-19T04:05:28;39.90;;;7.05;;
26536;SDS011;14204;51.262;5.488;2023-11-19T04:07:54;34.53;;;5.82;;
26536;SDS011;14204;51.262;5.488;2023-11-19T04:10:19;38.78;;;5.78;;
26536;SDS011;14204;51.262;5.488;2023-11-19T04:12:47;38.92;;;6.47;;
26536;SDS011;14204;51.262;5.488;2023-11-19T04:15:13;42.47;;;6.53;;
26536;SDS011;14204;51.262;5.488;2023-11-19T04:17:39;43.33;;;7.05;;
26536;SDS011;14204;51.262;5.488;2023-11-19T04:20:05;38.05;;;6.43;;
26536;SDS011;14204;51.262;5.488;2023-11-19T04:22:35;45.58;;;7.65;;
26536;SDS011;14204;51.262;5.488;2023-11-19T04:25:01;42.72;;;7.40;;
26536;SDS011;14204;51.262;5.488;2023-11-19T04:27:27;37.25;;;7.22;;
26536;SDS011;14204;51.262;5.488;2023-11-19T04:29:52;45.00;;;7.82;;
26536;SDS011;14204;51.262;5.488;2023-11-19T04:32:18;47.40;;;7.18;;
26536;SDS011;14204;51.262;5.488;2023-11-19T04:34:44;40.15;;;7.18;;
26536;SDS011;14204;51.262;5.488;2023-11-19T04:37:10;38.17;;;6.18;;
26536;SDS011;14204;51.262;5.488;2023-11-19T04:39:36;32.70;;;6.10;;
26536;SDS011;14204;51.262;5.488;2023-11-19T04:42:02;41.17;;;6.40;;
26536;SDS011;14204;51.262;5.488;2023-11-19T04:44:29;37.78;;;6.75;;
26536;SDS011;14204;51.262;5.488;2023-11-19T04:46:55;35.38;;;7.45;;
26536;SDS011;14204;51.262;5.488;2023-11-19T04:49:21;35.72;;;5.80;;
26536;SDS011;14204;51.262;5.488;2023-11-19T04:51:47;49.72;;;6.65;;
26536;SDS011;14204;51.262;5.488;2023-11-19T04:54:12;40.40;;;6.25;;
26536;SDS011;14204;51.262;5.488;2023-11-19T04:56:39;35.53;;;6.70;;
26536;SDS011;14204;51.262;5.488;2023-11-19T04:59:05;23.15;;;4.57;;
26536;SDS011;14204;51.262;5.488;2023-11-19T05:01:34;44.08;;;8.20;;
26536;SDS011;14204;51.262;5.488;2023-11-19T05:04:00;39.47;;;8.38;;
26536;SDS011;14204;51.262;5.488;2023-11-19T05:06:29;30.85;;;5.63;;
26536;SDS011;14204;51.262;5.488;2023-11-19T05:08:56;38.67;;;6.60;;
26536;SDS011;14204;51.262;5.488;2023-11-19T05:11:23;36.85;;;6.70;;
26536;SDS011;14204;51.262;5.488;2023-11-19T05:13:49;38.97;;;6.97;;
26536;SDS011;14204;51.262;5.488;2023-11-19T05:16:15;34.78;;;5.93;;
26536;SDS011;14204;51.262;5.488;2023-11-19T05:18:42;41.95;;;6.85;;
26536;SDS011;14204;51.262;5.488;2023-11-19T05:21:09;31.88;;;5.45;;
26536;SDS011;14204;51.262;5.488;2023-11-19T05:23:34;30.58;;;6.28;;
26536;SDS011;14204;51.262;5.488;2023-11-19T05:26:01;36.88;;;6.80;;
26536;SDS011;14204;51.262;5.488;2023-11-19T05:28:26;27.67;;;5.22;;
26536;SDS011;14204;51.262;5.488;2023-11-19T05:30:52;32.00;;;5.93;;
26536;SDS011;14204;51.262;5.488;2023-11-19T05:33:18;38.80;;;6.28;;
26536;SDS011;14204;51.262;5.488;2023-11-19T05:35:43;40.55;;;6.80;;
26536;SDS011;14204;51.262;5.488;2023-11-19T05:38:09;41.15;;;7.05;;
26536;SDS011;14204;51.262;5.488;2023-11-19T05:40:35;35.30;;;6.95;;
26536;SDS011;14204;51.262;5.488;2023-11-19T05:43:01;39.23;;;6.60;;
26536;SDS011;14204;51.262;5.488;2023-11-19T05:45:27;40.67;;;6.43;;
26536;SDS011;14204;51.262;5.488;2023-11-19T05:47:52;39.13;;;5.97;;
26536;SDS011;14204;51.262;5.488;2023-11-19T05:50:18;49.40;;;7.28;;
26536;SDS011;14204;51.262;5.488;2023-11-19T05:52:44;49.80;;;7.03;;
26536;SDS011;14204;51.262;5.488;2023-11-19T05:55:11;37.97;;;6.57;;
26536;SDS011;14204;51.262;5.488;2023-11-19T05:57:38;40.75;;;7.32;;
26536;SDS011;14204;51.262;5.488;2023-11-19T06:00:04;45.20;;;6.60;;
26536;SDS011;14204;51.262;5.488;2023-11-19T06:02:35;38.33;;;6.57;;
26536;SDS011;14204;51.262;5.488;2023-11-19T06:05:03;41.63;;;6.97;;
26536;SDS011;14204;51.262;5.488;2023-11-19T06:07:31;39.15;;;6.82;;
26536;SDS011;14204;51.262;5.488;2023-11-19T06:09:57;43.53;;;6.68;;
26536;SDS011;14204;51.262;5.488;2023-11-19T06:12:22;42.75;;;7.03;;
26536;SDS011;14204;51.262;5.488;2023-11-19T06:14:48;40.55;;;7.60;;
26536;SDS011;14204;51.262;5.488;2023-11-19T06:17:14;36.70;;;6.28;;
26536;SDS011;14204;51.262;5.488;2023-11-19T06:19:39;38.55;;;6.63;;
26536;SDS011;14204;51.262;5.488;2023-11-19T06:22:05;43.35;;;6.78;;
26536;SDS011;14204;51.262;5.488;2023-11-19T06:24:31;41.92;;;7.45;;
26536;SDS011;14204;51.262;5.488;2023-11-19T06:26:57;37.25;;;7.05;;
26536;SDS011;14204;51.262;5.488;2023-11-19T06:29:23;36.90;;;6.75;;
26536;SDS011;14204;51.262;5.488;2023-11-19T06:31:49;35.40;;;6.05;;
26536;SDS011;14204;51.262;5.488;2023-11-19T06:34:15;41.13;;;6.28;;
26536;SDS011;14204;51.262;5.488;2023-11-19T06:36:41;52.95;;;7.43;;
26536;SDS011;14204;51.262;5.488;2023-11-19T06:39:08;38.55;;;7.47;;
26536;SDS011;14204;51.262;5.488;2023-11-19T06:41:35;42.00;;;11.10;;
26536;SDS011;14204;51.262;5.488;2023-11-19T06:44:03;43.10;;;7.13;;
26536;SDS011;14204;51.262;5.488;2023-11-19T06:46:29;43.90;;;6.38;;
26536;SDS011;14204;51.262;5.488;2023-11-19T06:48:56;44.33;;;6.82;;
26536;SDS011;14204;51.262;5.488;2023-11-19T06:51:22;38.90;;;7.40;;
26536;SDS011;14204;51.262;5.488;2023-11-19T06:53:49;47.63;;;7.82;;
26536;SDS011;14204;51.262;5.488;2023-11-19T06:56:19;50.75;;;8.00;;
26536;SDS011;14204;51.262;5.488;2023-11-19T06:58:49;37.25;;;7.28;;
26536;SDS011;14204;51.262;5.488;2023-11-19T07:01:15;46.35;;;7.30;;
26536;SDS011;14204;51.262;5.488;2023-11-19T07:03:41;39.20;;;8.10;;
26536;SDS011;14204;51.262;5.488;2023-11-19T07:06:07;38.75;;;7.07;;
26536;SDS011;14204;51.262;5.488;2023-11-19T07:08:33;41.03;;;7.07;;
26536;SDS011;14204;51.262;5.488;2023-11-19T07:10:59;39.50;;;7.70;;
26536;SDS011;14204;51.262;5.488;2023-11-19T07:13:25;46.47;;;7.28;;
26536;SDS011;14204;51.262;5.488;2023-11-19T07:15:53;51.92;;;8.57;;
26536;SDS011;14204;51.262;5.488;2023-11-19T07:18:20;44.55;;;8.00;;
26536;SDS011;14204;51.262;5.488;2023-11-19T07:20:49;44.53;;;7.32;;
26536;SDS011;14204;51.262;5.488;2023-11-19T07:23:15;44.95;;;6.72;;
26536;SDS011;14204;51.262;5.488;2023-11-19T07:25:43;38.95;;;7.38;;
26536;SDS011;14204;51.262;5.488;2023-11-19T07:28:14;39.92;;;7.20;;
26536;SDS011;14204;51.262;5.488;2023-11-19T07:30:41;44.05;;;6.38;;
26536;SDS011;14204;51.262;5.488;2023-11-19T07:33:07;44.97;;;7.72;;
26536;SDS011;14204;51.262;5.488;2023-11-19T07:35:33;40.33;;;7.55;;
26536;SDS011;14204;51.262;5.488;2023-11-19T07:37:59;46.05;;;7.40;;
26536;SDS011;14204;51.262;5.488;2023-11-19T07:40:24;42.78;;;6.82;;
26536;SDS011;14204;51.262;5.488;2023-11-19T07:42:50;37.55;;;6.38;;
26536;SDS011;14204;51.262;5.488;2023-11-19T07:45:16;40.15;;;6.53;;
26536;SDS011;14204;51.262;5.488;2023-11-19T07:47:42;42.88;;;7.28;;
26536;SDS011;14204;51.262;5.488;2023-11-19T07:50:11;37.63;;;7.15;;
26536;SDS011;14204;51.262;5.488;2023-11-19T07:52:39;37.72;;;7.07;;
26536;SDS011;14204;51.262;5.488;2023-11-19T07:55:05;52.33;;;7.15;;
26536;SDS011;14204;51.262;5.488;2023-11-19T07:57:31;43.15;;;6.78;;
26536;SDS011;14204;51.262;5.488;2023-11-19T07:59:59;38.20;;;6.93;;
26536;SDS011;14204;51.262;5.488;2023-11-19T08:02:26;36.47;;;6.10;;
26536;SDS011;14204;51.262;5.488;2023-11-19T08:04:52;49.35;;;8.20;;
26536;SDS011;14204;51.262;5.488;2023-11-19T08:07:20;40.10;;;7.55;;
26536;SDS011;14204;51.262;5.488;2023-11-19T08:09:48;42.60;;;8.20;;
26536;SDS011;14204;51.262;5.488;2023-11-19T08:12:14;42.58;;;7.30;;
26536;SDS011;14204;51.262;5.488;2023-11-19T08:14:41;36.88;;;6.85;;
26536;SDS011;14204;51.262;5.488;2023-11-19T08:17:06;40.80;;;7.43;;
26536;SDS011;14204;51.262;5.488;2023-11-19T08:19:32;40.65;;;7.13;;
26536;SDS011;14204;51.262;5.488;2023-11-19T08:21:58;48.10;;;7.15;;
26536;SDS011;14204;51.262;5.488;2023-11-19T08:24:23;40.38;;;8.05;;
26536;SDS011;14204;51.262;5.488;2023-11-19T08:26:49;44.03;;;7.47;;
26536;SDS011;14204;51.262;5.488;2023-11-19T08:29:15;45.72;;;7.43;;
26536;SDS011;14204;51.262;5.488;2023-11-19T08:31:42;34.80;;;6.53;;
26536;SDS011;14204;51.262;5.488;2023-11-19T08:34:08;48.58;;;7.75;;
26536;SDS011;14204;51.262;5.488;2023-11-19T08:36:36;37.80;;;7.47;;
26536;SDS011;14204;51.262;5.488;2023-11-19T08:39:02;42.60;;;7.72;;
26536;SDS011;14204;51.262;5.488;2023-11-19T08:41:28;39.28;;;7.57;;
26536;SDS011;14204;51.262;5.488;2023-11-19T08:43:54;43.38;;;7.22;;
26536;SDS011;14204;51.262;5.488;2023-11-19T08:46:19;41.20;;;7.53;;
26536;SDS011;14204;51.262;5.488;2023-11-19T08:48:45;41.15;;;7.20;;
26536;SDS011;14204;51.262;5.488;2023-11-19T08:51:11;38.90;;;7.10;;
26536;SDS011;14204;51.262;5.488;2023-11-19T08:53:37;43.10;;;7.35;;
26536;SDS011;14204;51.262;5.488;2023-11-19T08:56:03;43.58;;;7.72;;
26536;SDS011;14204;51.262;5.488;2023-11-19T08:58:29;35.33;;;7.25;;
26536;SDS011;14204;51.262;5.488;2023-11-19T09:00:55;41.22;;;6.85;;
26536;SDS011;14204;51.262;5.488;2023-11-19T09:03:21;39.22;;;6.80;;
26536;SDS011;14204;51.262;5.488;2023-11-19T09:05:47;43.60;;;7.38;;
26536;SDS011;14204;51.262;5.488;2023-11-19T09:08:13;32.08;;;6.63;;
26536;SDS011;14204;51.262;5.488;2023-11-19T09:10:38;38.65;;;7.93;;
26536;SDS011;14204;51.262;5.488;2023-11-19T09:13:04;41.58;;;7.10;;
26536;SDS011;14204;51.262;5.488;2023-11-19T09:15:30;40.20;;;6.57;;
26536;SDS011;14204;51.262;5.488;2023-11-19T09:17:56;40.03;;;6.63;;
26536;SDS011;14204;51.262;5.488;2023-11-19T09:20:21;40.00;;;7.80;;
26536;SDS011;14204;51.262;5.488;2023-11-19T09:22:47;47.08;;;7.32;;
26536;SDS011;14204;51.262;5.488;2023-11-19T09:25:13;44.45;;;7.68;;
26536;SDS011;14204;51.262;5.488;2023-11-19T09:27:42;30.95;;;6.45;;
26536;SDS011;14204;51.262;5.488;2023-11-19T09:30:09;40.83;;;7.10;;
26536;SDS011;14204;51.262;5.488;2023-11-19T09:32:35;35.22;;;6.57;;
26536;SDS011;14204;51.262;5.488;2023-11-19T09:35:00;35.63;;;6.57;;
26536;SDS011;14204;51.262;5.488;2023-11-19T09:37:28;36.30;;;6.82;;
26536;SDS011;14204;51.262;5.488;2023-11-19T09:39:53;34.17;;;6.70;;
26536;SDS011;14204;51.262;5.488;2023-11-19T09:42:19;28.85;;;6.20;;
26536;SDS011;14204;51.262;5.488;2023-11-19T09:44:45;38.08;;;6.85;;
26536;SDS011;14204;51.262;5.488;2023-11-19T09:47:13;43.25;;;6.80;;
26536;SDS011;14204;51.262;5.488;2023-11-19T09:49:41;37.35;;;7.75;;
26536;SDS011;14204;51.262;5.488;2023-11-19T09:52:08;34.20;;;6.55;;
26536;SDS011;14204;51.262;5.488;2023-11-19T09:54:34;31.25;;;6.82;;
26536;SDS011;14204;51.262;5.488;2023-11-19T09:57:00;38.03;;;7.90;;
26536;SDS011;14204;51.262;5.488;2023-11-19T09:59:30;42.75;;;7.63;;
26536;SDS011;14204;51.262;5.488;2023-11-19T10:01:57;42.78;;;6.18;;
26536;SDS011;14204;51.262;5.488;2023-11-19T10:04:24;34.08;;;5.93;;
26536;SDS011;14204;51.262;5.488;2023-11-19T10:06:54;40.40;;;6.38;;
26536;SDS011;14204;51.262;5.488;2023-11-19T10:09:20;39.35;;;6.03;;
26536;SDS011;14204;51.262;5.488;2023-11-19T10:11:46;38.72;;;6.47;;
26536;SDS011;14204;51.262;5.488;2023-11-19T10:14:11;34.97;;;6.05;;
26536;SDS011;14204;51.262;5.488;2023-11-19T10:16:39;28.45;;;6.20;;
26536;SDS011;14204;51.262;5.488;2023-11-19T10:19:06;37.17;;;6.05;;
26536;SDS011;14204;51.262;5.488;2023-11-19T10:21:34;33.60;;;7.25;;
26536;SDS011;14204;51.262;5.488;2023-11-19T10:24:00;34.42;;;6.40;;
26536;SDS011;14204;51.262;5.488;2023-11-19T10:26:26;31.35;;;6.90;;
26536;SDS011;14204;51.262;5.488;2023-11-19T10:28:53;27.92;;;5.90;;
26536;SDS011;14204;51.262;5.488;2023-11-19T10:31:20;29.00;;;6.03;;
26536;SDS011;14204;51.262;5.488;2023-11-19T10:33:50;37.88;;;7.63;;
26536;SDS011;14204;51.262;5.488;2023-11-19T10:36:16;34.35;;;6.32;;
26536;SDS011;14204;51.262;5.488;2023-11-19T10:38:55;40.53;;;6.35;;
26536;SDS011;14204;51.262;5.488;2023-11-19T10:41:31;40.67;;;6.20;;
26536;SDS011;14204;51.262;5.488;2023-11-19T10:43:58;32.22;;;7.32;;
26536;SDS011;14204;51.262;5.488;2023-11-19T10:46:36;30.98;;;6.10;;
26536;SDS011;14204;51.262;5.488;2023-11-19T10:49:05;29.98;;;6.10;;
26536;SDS011;14204;51.262;5.488;2023-11-19T10:51:31;30.13;;;5.70;;
26536;SDS011;14204;51.262;5.488;2023-11-19T10:54:00;33.03;;;5.32;;
26536;SDS011;14204;51.262;5.488;2023-11-19T10:56:32;27.80;;;5.47;;
26536;SDS011;14204;51.262;5.488;2023-11-19T10:59:01;40.00;;;6.53;;
26536;SDS011;14204;51.262;5.488;2023-11-19T11:01:36;30.92;;;5.70;;
26536;SDS011;14204;51.262;5.488;2023-11-19T11:04:18;27.65;;;6.22;;
26536;SDS011;14204;51.262;5.488;2023-11-19T11:06:48;27.85;;;5.88;;
26536;SDS011;14204;51.262;5.488;2023-11-19T11:09:15;26.90;;;6.13;;
26536;SDS011;14204;51.262;5.488;2023-11-19T11:11:44;28.08;;;6.03;;
26536;SDS011;14204;51.262;5.488;2023-11-19T11:14:12;25.83;;;5.80;;
26536;SDS011;14204;51.262;5.488;2023-11-19T11:16:44;34.30;;;6.30;;
26536;SDS011;14204;51.262;5.488;2023-11-19T11:19:13;23.17;;;5.17;;
26536;SDS011;14204;51.262;5.488;2023-11-19T11:21:42;27.52;;;5.32;;
26536;SDS011;14204;51.262;5.488;2023-11-19T11:26:50;30.75;;;5.20;;
26536;SDS011;14204;51.262;5.488;2023-11-19T11:35:33;22.55;;;5.25;;
26536;SDS011;14204;51.262;5.488;2023-11-19T11:38:21;28.35;;;5.45;;
26536;SDS011;14204;51.262;5.488;2023-11-19T11:43:52;30.33;;;5.78;;
26536;SDS011;14204;51.262;5.488;2023-11-19T11:49:02;29.88;;;5.40;;
26536;SDS011;14204;51.262;5.488;2023-11-19T11:54:09;29.05;;;5.70;;
26536;SDS011;14204;51.262;5.488;2023-11-19T11:56:39;31.27;;;5.53;;
26536;SDS011;14204;51.262;5.488;2023-11-19T11:59:08;27.55;;;5.47;;
26536;SDS011;14204;51.262;5.488;2023-11-19T12:02:05;24.00;;;5.78;;
26536;SDS011;14204;51.262;5.488;2023-11-19T12:04:33;31.65;;;5.30;;
26536;SDS011;14204;51.262;5.488;2023-11-19T12:07:11;36.75;;;6.32;;
26536;SDS011;14204;51.262;5.488;2023-11-19T12:09:42;28.80;;;5.35;;
26536;SDS011;14204;51.262;5.488;2023-11-19T12:17:57;32.63;;;6.20;;
26536;SDS011;14204;51.262;5.488;2023-11-19T12:20:19;29.73;;;5.47;;
26536;SDS011;14204;51.262;5.488;2023-11-19T12:22:53;28.80;;;5.93;;
26536;SDS011;14204;51.262;5.488;2023-11-19T12:25:20;38.30;;;5.40;;
26536;SDS011;14204;51.262;5.488;2023-11-19T12:27:47;20.88;;;5.05;;
26536;SDS011;14204;51.262;5.488;2023-11-19T12:30:17;27.75;;;5.78;;
26536;SDS011;14204;51.262;5.488;2023-11-19T12:32:47;25.95;;;5.07;;
26536;SDS011;14204;51.262;5.488;2023-11-19T12:35:14;24.08;;;4.38;;
26536;SDS011;14204;51.262;5.488;2023-11-19T12:37:40;30.08;;;5.18;;
26536;SDS011;14204;51.262;5.488;2023-11-19T12:42:42;18.20;;;5.18;;
26536;SDS011;14204;51.262;5.488;2023-11-19T12:45:08;18.20;;;5.28;;
26536;SDS011;14204;51.262;5.488;2023-11-19T12:47:40;25.23;;;4.93;;
26536;SDS011;14204;51.262;5.488;2023-11-19T12:50:07;21.67;;;4.75;;
26536;SDS011;14204;51.262;5.488;2023-11-19T12:52:38;20.73;;;5.38;;
26536;SDS011;14204;51.262;5.488;2023-11-19T12:55:04;23.48;;;4.40;;
26536;SDS011;14204;51.262;5.488;2023-11-19T12:57:48;30.83;;;5.78;;
26536;SDS011;14204;51.262;5.488;2023-11-19T13:00:18;30.58;;;6.07;;
26536;SDS011;14204;51.262;5.488;2023-11-19T13:02:50;32.20;;;6.10;;
26536;SDS011;14204;51.262;5.488;2023-11-19T13:05:24;29.30;;;5.55;;
26536;SDS011;14204;51.262;5.488;2023-11-19T13:07:57;25.27;;;4.43;;
26536;SDS011;14204;51.262;5.488;2023-11-19T13:10:27;23.63;;;4.75;;
26536;SDS011;14204;51.262;5.488;2023-11-19T13:13:00;24.73;;;4.80;;
26536;SDS011;14204;51.262;5.488;2023-11-19T13:15:33;24.90;;;5.13;;
26536;SDS011;14204;51.262;5.488;2023-11-19T13:18:00;33.97;;;6.53;;
26536;SDS011;14204;51.262;5.488;2023-11-19T13:20:27;19.42;;;5.00;;
26536;SDS011;14204;51.262;5.488;2023-11-19T13:22:56;32.13;;;5.95;;
26536;SDS011;14204;51.262;5.488;2023-11-19T13:25:26;30.02;;;5.68;;
26536;SDS011;14204;51.262;5.488;2023-11-19T13:27:53;27.05;;;5.82;;
26536;SDS011;14204;51.262;5.488;2023-11-19T13:30:19;26.42;;;6.05;;
26536;SDS011;14204;51.262;5.488;2023-11-19T13:32:47;27.30;;;6.57;;
26536;SDS011;14204;51.262;5.488;2023-11-19T13:35:13;36.15;;;6.15;;
26536;SDS011;14204;51.262;5.488;2023-11-19T13:37:39;27.83;;;5.47;;
26536;SDS011;14204;51.262;5.488;2023-11-19T13:40:09;37.70;;;6.55;;
26536;SDS011;14204;51.262;5.488;2023-11-19T13:42:38;25.70;;;5.80;;
26536;SDS011;14204;51.262;5.488;2023-11-19T13:45:15;31.38;;;6.20;;
26536;SDS011;14204;51.262;5.488;2023-11-19T13:47:43;38.38;;;5.65;;
26536;SDS011;14204;51.262;5.488;2023-11-19T13:50:13;34.63;;;6.25;;
26536;SDS011;14204;51.262;5.488;2023-11-19T13:52:41;34.42;;;5.68;;
26536;SDS011;14204;51.262;5.488;2023-11-19T13:55:08;32.42;;;6.75;;
26536;SDS011;14204;51.262;5.488;2023-11-19T13:57:35;32.90;;;6.13;;
26536;SDS011;14204;51.262;5.488;2023-11-19T14:00:02;30.60;;;5.55;;
26536;SDS011;14204;51.262;5.488;2023-11-19T14:02:32;30.15;;;6.22;;
26536;SDS011;14204;51.262;5.488;2023-11-19T14:04:58;27.95;;;5.65;;
26536;SDS011;14204;51.262;5.488;2023-11-19T14:07:25;25.00;;;5.03;;
26536;SDS011;14204;51.262;5.488;2023-11-19T14:09:50;26.30;;;5.60;;
26536;SDS011;14204;51.262;5.488;2023-11-19T14:12:16;33.58;;;6.00;;
26536;SDS011;14204;51.262;5.488;2023-11-19T14:14:42;37.15;;;6.85;;
26536;SDS011;14204;51.262;5.488;2023-11-19T14:17:08;29.02;;;6.45;;
26536;SDS011;14204;51.262;5.488;2023-11-19T14:19:36;23.73;;;5.65;;
26536;SDS011;14204;51.262;5.488;2023-11-19T14:22:03;36.22;;;7.10;;
26536;SDS011;14204;51.262;5.488;2023-11-19T14:24:29;31.45;;;5.47;;
26536;SDS011;14204;51.262;5.488;2023-11-19T14:26:54;34.03;;;8.32;;
26536;SDS011;14204;51.262;5.488;2023-11-19T14:29:23;35.40;;;7.78;;
26536;SDS011;14204;51.262;5.488;2023-11-19T14:31:48;35.78;;;6.53;;
26536;SDS011;14204;51.262;5.488;2023-11-19T14:34:14;32.67;;;5.53;;
26536;SDS011;14204;51.262;5.488;2023-11-19T14:36:40;24.38;;;5.85;;
26536;SDS011;14204;51.262;5.488;2023-11-19T14:39:06;33.25;;;5.85;;
26536;SDS011;14204;51.262;5.488;2023-11-19T14:41:32;28.15;;;5.13;;
26536;SDS011;14204;51.262;5.488;2023-11-19T14:43:58;25.45;;;5.63;;
26536;SDS011;14204;51.262;5.488;2023-11-19T14:46:23;23.10;;;4.65;;
26536;SDS011;14204;51.262;5.488;2023-11-19T14:48:49;22.63;;;5.07;;
26536;SDS011;14204;51.262;5.488;2023-11-19T14:51:15;26.98;;;4.85;;
26536;SDS011;14204;51.262;5.488;2023-11-19T14:53:40;25.67;;;5.50;;
26536;SDS011;14204;51.262;5.488;2023-11-19T14:56:10;28.70;;;5.10;;
26536;SDS011;14204;51.262;5.488;2023-11-19T14:58:36;28.75;;;5.80;;